Time;durP1;ratioP1;P1;durP2;ratioP2;P2;SDS_P1;SDS_P2;PMS_P1;PMS_P2;Temp;Humidity;BMP_temperature;BMP_pressure;BME280_temperature;BME280_humidity;BME280_pressure;Samples;Min_cycle;Max_cycle;Signal;HPM_P1;HPM_P2
2021/03/18 00:02:21;;;;;;;7.17;6.47;;;17.30;56.40;;;;;;5124025;28;20430;-36
2021/03/18 00:04:51;;;;;;;7.47;6.07;;;17.20;57.20;;;;;;5124080;28;20910;-36
2021/03/18 00:07:21;;;;;;;6.30;5.80;;;17.20;58.70;;;;;;5124549;28;20510;-37
2021/03/18 00:09:53;;;;;;;6.73;4.93;;;17.10;59.10;;;;;;5124593;28;20457;-36
2021/03/18 00:12:23;;;;;;;4.80;4.33;;;16.90;58.90;;;;;;5123907;28;20445;-35
2021/03/18 00:14:54;;;;;;;4.63;4.23;;;17.00;55.20;;;;;;5124821;28;20440;-35
2021/03/18 00:17:24;;;;;;;2.97;2.70;;;17.00;53.60;;;;;;5125316;28;20444;-35
2021/03/18 00:19:54;;;;;;;3.17;2.87;;;16.90;52.20;;;;;;5124520;28;20485;-35
2021/03/18 00:22:24;;;;;;;3.70;3.40;;;16.90;51.30;;;;;;5124242;28;20569;-35
2021/03/18 00:24:55;;;;;;;3.97;3.60;;;16.70;51.40;;;;;;5124147;28;20454;-35
2021/03/18 00:27:26;;;;;;;3.93;3.63;;;16.70;52.20;;;;;;5122701;28;20477;-34
2021/03/18 00:29:56;;;;;;;4.07;3.43;;;16.70;51.90;;;;;;5121841;28;20524;-36
2021/03/18 00:32:26;;;;;;;4.93;3.90;;;16.70;54.10;;;;;;5122033;28;20449;-36
2021/03/18 00:34:56;;;;;;;3.87;3.57;;;16.60;54.00;;;;;;5123823;28;20484;-36
2021/03/18 00:37:26;;;;;;;3.80;3.27;;;16.50;54.80;;;;;;5121146;28;20460;-36
2021/03/18 00:39:59;;;;;;;5.27;4.20;;;16.50;54.90;;;;;;5124410;28;20529;-36
2021/03/18 00:42:29;;;;;;;5.50;4.03;;;16.40;55.70;;;;;;5117321;28;20481;-35
2021/03/18 00:44:59;;;;;;;3.90;3.60;;;16.40;53.20;;;;;;5124106;28;20457;-36
2021/03/18 00:47:29;;;;;;;3.83;3.47;;;16.40;56.40;;;;;;5106205;28;20952;-35
2021/03/18 00:50:00;;;;;;;3.90;3.60;;;16.30;56.70;;;;;;5124308;28;20475;-37
2021/03/18 00:52:30;;;;;;;3.63;3.33;;;16.20;56.10;;;;;;5123160;27;20497;-37
2021/03/18 00:55:01;;;;;;;4.37;3.67;;;16.10;56.10;;;;;;5120634;28;20552;-37
2021/03/18 00:57:31;;;;;;;3.73;3.43;;;16.10;58.60;;;;;;5122086;28;20472;-37
2021/03/18 01:00:02;;;;;;;4.57;4.17;;;16.00;55.40;;;;;;5123437;28;20460;-36
2021/03/18 01:02:32;;;;;;;6.17;3.80;;;16.10;55.00;;;;;;5124650;28;20451;-35
2021/03/18 01:05:02;;;;;;;4.07;3.67;;;16.00;57.90;;;;;;5124250;28;20448;-37
2021/03/18 01:07:32;;;;;;;6.73;4.60;;;15.90;58.90;;;;;;5123276;28;20472;-36
2021/03/18 01:10:04;;;;;;;3.50;3.23;;;15.80;58.30;;;;;;5121464;28;20448;-35
2021/03/18 01:12:34;;;;;;;4.20;3.80;;;15.80;58.50;;;;;;5122776;28;20477;-35
2021/03/18 01:15:06;;;;;;;5.07;4.03;;;15.70;58.60;;;;;;5116219;28;20447;-35
2021/03/18 01:17:36;;;;;;;7.30;6.80;;;15.50;58.40;;;;;;5119920;28;20456;-36
2021/03/18 01:20:13;;;;;;;5.17;4.67;;;15.50;59.20;;;;;;5118590;28;20451;-35
2021/03/18 01:22:43;;;;;;;5.83;5.33;;;15.50;60.00;;;;;;5116365;28;20484;-36
2021/03/18 01:25:15;;;;;;;5.33;4.83;;;15.40;59.50;;;;;;5123089;28;20849;-36
2021/03/18 01:27:45;;;;;;;5.30;4.80;;;15.40;59.40;;;;;;5122470;28;20478;-35
2021/03/18 01:30:19;;;;;;;5.43;4.93;;;15.40;58.40;;;;;;5111699;28;20438;-36
2021/03/18 01:32:49;;;;;;;5.90;5.33;;;15.40;57.20;;;;;;5123149;28;20451;-36
2021/03/18 01:35:21;;;;;;;6.57;5.97;;;15.30;59.40;;;;;;5123236;28;20455;-36
2021/03/18 01:37:52;;;;;;;7.47;6.67;;;15.20;60.00;;;;;;5123112;28;20454;-35
2021/03/18 01:40:28;;;;;;;6.17;4.63;;;15.10;60.00;;;;;;5111763;28;20473;-35
2021/03/18 01:42:59;;;;;;;14.23;13.03;;;15.10;58.90;;;;;;5122144;28;20446;-36
2021/03/18 01:45:29;;;;;;;35.07;31.57;;;15.20;58.10;;;;;;5122779;28;20455;-36
2021/03/18 01:48:02;;;;;;;8.77;6.50;;;15.20;58.30;;;;;;5122645;28;20537;-36
2021/03/18 01:50:36;;;;;;;7.30;6.40;;;15.10;58.10;;;;;;5122869;28;20462;-35
2021/03/18 01:53:06;;;;;;;5.93;5.43;;;15.00;59.30;;;;;;5123292;28;20450;-36
2021/03/18 01:55:39;;;;;;;6.53;5.87;;;14.90;61.70;;;;;;5121638;28;20450;-36
2021/03/18 01:58:11;;;;;;;5.23;4.73;;;14.70;63.60;;;;;;5119422;28;20500;-36
2021/03/18 02:00:43;;;;;;;5.27;4.77;;;14.60;65.50;;;;;;5114428;28;20476;-36
2021/03/18 02:03:13;;;;;;;5.23;4.70;;;14.50;66.40;;;;;;5122840;28;20458;-36
2021/03/18 02:05:44;;;;;;;4.80;4.40;;;14.40;68.70;;;;;;5122072;28;20786;-36
2021/03/18 02:08:15;;;;;;;5.50;5.00;;;14.20;71.50;;;;;;5122935;28;20481;-36
2021/03/18 02:10:46;;;;;;;5.63;5.00;;;14.10;72.10;;;;;;5122667;28;20562;-36
2021/03/18 02:13:18;;;;;;;5.80;5.27;;;13.90;70.30;;;;;;5121778;28;20446;-36
2021/03/18 02:15:50;;;;;;;5.30;4.90;;;13.90;74.40;;;;;;5119419;28;20450;-36
2021/03/18 02:18:29;;;;;;;7.00;5.40;;;13.70;76.00;;;;;;5122659;28;20634;-36
2021/03/18 02:21:31;;;;;;;6.50;4.53;;;13.60;72.50;;;;;;5122366;28;20454;-37
2021/03/18 02:24:18;;;;;;;5.33;4.83;;;13.50;80.40;;;;;;5120377;28;20507;-37
2021/03/18 02:27:35;;;;;;;5.83;4.97;;;13.30;80.10;;;;;;5121615;28;20451;-37
2021/03/18 02:30:47;;;;;;;5.90;5.40;;;13.20;84.70;;;;;;5109190;28;20442;-37
2021/03/18 02:33:51;;;;;;;5.07;4.67;;;13.00;89.30;;;;;;5122611;28;20453;-37
2021/03/18 02:36:24;;;;;;;7.47;6.83;;;12.80;91.10;;;;;;5117431;28;20479;-35
2021/03/18 02:38:58;;;;;;;7.73;7.03;;;12.70;91.10;;;;;;5121781;28;20461;-34
2021/03/18 02:41:33;;;;;;;8.30;7.60;;;12.60;91.60;;;;;;5118981;28;20456;-35
2021/03/18 02:44:08;;;;;;;11.23;10.20;;;12.50;93.20;;;;;;5122418;28;20453;-34
2021/03/18 02:46:40;;;;;;;12.03;11.03;;;12.40;93.20;;;;;;5122866;28;20780;-36
2021/03/18 02:49:12;;;;;;;14.90;13.70;;;12.30;95.20;;;;;;5121921;28;20488;-35
2021/03/18 02:51:45;;;;;;;13.00;11.90;;;12.20;94.30;;;;;;5122033;28;20457;-35
2021/03/18 02:54:20;;;;;;;13.33;12.13;;;12.10;95.40;;;;;;5122048;28;20453;-35
2021/03/18 02:56:53;;;;;;;12.27;10.97;;;11.90;96.70;;;;;;5124812;28;20464;-35
2021/03/18 02:59:28;;;;;;;14.60;13.20;;;11.90;97.00;;;;;;5126783;28;20459;-36
2021/03/18 03:02:00;;;;;;;12.77;11.67;;;11.80;97.70;;;;;;5125785;28;20490;-35
2021/03/18 03:04:31;;;;;;;13.87;12.77;;;11.70;98.00;;;;;;5125077;27;20536;-35
2021/03/18 03:07:03;;;;;;;14.23;12.93;;;11.70;99.40;;;;;;5123171;28;20445;-35
2021/03/18 03:09:35;;;;;;;14.07;12.97;;;11.60;96.60;;;;;;5122513;28;20549;-36
2021/03/18 03:12:07;;;;;;;13.17;11.87;;;11.60;97.10;;;;;;5123694;28;20895;-36
2021/03/18 03:14:39;;;;;;;12.50;11.40;;;11.60;96.50;;;;;;5113808;28;20531;-35
2021/03/18 03:17:09;;;;;;;12.73;11.60;;;11.60;97.50;;;;;;5121365;28;20448;-36
2021/03/18 03:19:41;;;;;;;12.67;11.40;;;11.50;98.30;;;;;;5119475;28;20446;-35
2021/03/18 03:22:13;;;;;;;11.97;10.93;;;11.40;99.80;;;;;;5121541;28;20453;-36
2021/03/18 03:24:45;;;;;;;12.53;11.43;;;11.30;99.70;;;;;;5125373;28;20457;-36
2021/03/18 03:27:16;;;;;;;11.90;10.80;;;11.20;99.90;;;;;;5124950;28;20789;-36
2021/03/18 03:29:47;;;;;;;11.50;10.47;;;11.10;99.90;;;;;;5125547;28;20484;-37
2021/03/18 03:32:17;;;;;;;12.73;11.63;;;11.10;99.90;;;;;;5125310;28;20460;-35
2021/03/18 03:34:47;;;;;;;11.40;10.30;;;11.00;99.90;;;;;;5125704;28;20611;-36
2021/03/18 03:37:18;;;;;;;12.57;11.37;;;10.90;99.90;;;;;;5124406;28;20505;-36
2021/03/18 03:39:49;;;;;;;10.98;9.90;;;10.90;99.90;;;;;;5121390;28;20541;-36
2021/03/18 03:42:20;;;;;;;9.50;8.70;;;10.90;99.90;;;;;;5124328;28;20211;-36
2021/03/18 03:44:50;;;;;;;11.43;9.60;;;10.90;99.80;;;;;;5125297;28;20488;-35
2021/03/18 03:47:21;;;;;;;11.30;10.20;;;11.00;99.90;;;;;;5125728;28;20463;-36
2021/03/18 03:49:51;;;;;;;13.23;9.15;;;10.80;99.90;;;;;;5124829;28;20963;-36
2021/03/18 03:52:27;;;;;;;9.70;8.57;;;10.70;99.90;;;;;;5124881;28;20243;-36
2021/03/18 03:55:03;;;;;;;9.67;8.47;;;10.70;99.90;;;;;;5118559;28;20455;-36
2021/03/18 03:57:38;;;;;;;9.57;8.30;;;10.60;99.90;;;;;;5123966;28;20567;-36
2021/03/18 04:00:10;;;;;;;9.52;8.38;;;10.40;99.90;;;;;;5125020;28;20456;-36
2021/03/18 04:02:58;;;;;;;9.38;8.18;;;10.40;99.90;;;;;;5122962;28;20202;-35
2021/03/18 04:05:30;;;;;;;9.13;8.33;;;10.30;99.90;;;;;;5125108;28;20280;-36
2021/03/18 04:08:03;;;;;;;11.20;8.80;;;10.20;99.90;;;;;;5124064;28;20486;-36
2021/03/18 04:10:34;;;;;;;10.03;8.47;;;10.10;99.90;;;;;;5124478;28;20213;-36
2021/03/18 04:13:05;;;;;;;10.73;9.03;;;10.10;99.90;;;;;;5107046;28;20793;-37
2021/03/18 04:15:36;;;;;;;10.30;8.90;;;9.90;99.90;;;;;;5124493;28;20581;-36
2021/03/18 04:18:08;;;;;;;12.13;10.43;;;10.00;99.90;;;;;;5124426;28;20203;-35
2021/03/18 04:20:40;;;;;;;11.88;10.75;;;9.90;99.90;;;;;;5124810;28;20461;-37
2021/03/18 04:23:13;;;;;;;12.85;11.48;;;9.90;99.90;;;;;;5123739;28;20630;-36
2021/03/18 04:25:44;;;;;;;11.18;10.15;;;9.90;99.90;;;;;;5124670;28;20206;-36
2021/03/18 04:28:15;;;;;;;12.88;11.48;;;9.90;99.90;;;;;;5123727;28;20217;-36
2021/03/18 04:30:45;;;;;;;14.15;11.95;;;9.80;99.90;;;;;;5124148;28;20221;-36
2021/03/18 04:33:16;;;;;;;14.63;11.80;;;9.80;99.90;;;;;;5115377;28;20342;-35
2021/03/18 04:35:47;;;;;;;15.32;13.75;;;9.60;99.90;;;;;;5124119;28;20208;-36
2021/03/18 04:38:18;;;;;;;14.88;13.57;;;9.50;99.90;;;;;;5122333;28;20213;-36
2021/03/18 04:40:50;;;;;;;15.50;14.00;;;9.40;99.90;;;;;;5119101;28;20733;-36
2021/03/18 04:43:20;;;;;;;15.88;14.27;;;9.40;99.90;;;;;;5122538;28;20656;-35
2021/03/18 04:45:52;;;;;;;15.73;14.13;;;9.40;99.90;;;;;;5124369;28;20738;-36
2021/03/18 04:48:23;;;;;;;18.48;13.73;;;9.30;99.90;;;;;;5121126;28;20213;-35
2021/03/18 04:50:54;;;;;;;14.68;13.27;;;9.30;99.90;;;;;;5124350;28;20197;-36
2021/03/18 04:53:25;;;;;;;15.40;14.00;;;9.30;99.90;;;;;;5123246;28;20200;-36
2021/03/18 04:55:55;;;;;;;16.08;14.43;;;9.20;99.90;;;;;;5123950;28;20205;-36
2021/03/18 04:58:26;;;;;;;15.52;13.93;;;9.20;99.90;;;;;;5121965;28;20632;-35
2021/03/18 05:00:57;;;;;;;15.43;13.57;;;9.10;99.90;;;;;;5122919;28;20254;-35
2021/03/18 05:03:28;;;;;;;15.10;13.50;;;9.00;99.90;;;;;;5123717;28;20225;-35
2021/03/18 05:06:00;;;;;;;15.30;13.23;;;9.00;99.90;;;;;;5124436;28;20233;-35
2021/03/18 05:08:33;;;;;;;18.10;14.93;;;8.90;99.90;;;;;;5117868;28;20221;-35
2021/03/18 05:11:03;;;;;;;18.88;14.20;;;8.90;99.90;;;;;;5123879;28;20208;-35
2021/03/18 05:13:34;;;;;;;16.60;14.77;;;8.90;99.90;;;;;;5122924;28;20231;-35
2021/03/18 05:16:05;;;;;;;15.55;13.95;;;8.80;99.90;;;;;;5123705;28;20204;-35
2021/03/18 05:18:36;;;;;;;14.95;13.55;;;8.80;99.90;;;;;;5121080;28;20284;-35
2021/03/18 05:21:07;;;;;;;16.52;14.93;;;8.80;99.90;;;;;;5111897;28;20200;-35
2021/03/18 05:23:40;;;;;;;15.93;14.30;;;8.70;99.90;;;;;;5123341;28;20292;-35
2021/03/18 05:26:11;;;;;;;16.40;14.73;;;8.70;99.90;;;;;;5122997;28;20295;-35
2021/03/18 05:28:41;;;;;;;14.40;13.07;;;8.70;99.90;;;;;;5122437;28;20754;-35
2021/03/18 05:31:11;;;;;;;15.70;14.13;;;8.70;99.90;;;;;;5123305;28;20211;-35
2021/03/18 05:33:41;;;;;;;17.90;14.35;;;8.60;99.90;;;;;;5123658;28;20234;-35
2021/03/18 05:36:11;;;;;;;15.38;13.98;;;8.50;99.90;;;;;;5123239;28;20204;-35
2021/03/18 05:38:43;;;;;;;15.38;13.70;;;8.50;99.90;;;;;;5122191;28;20205;-35
2021/03/18 05:41:13;;;;;;;14.60;13.20;;;8.50;99.90;;;;;;5121842;28;20288;-35
2021/03/18 05:43:44;;;;;;;15.18;13.63;;;8.40;99.90;;;;;;5122756;28;20204;-35
2021/03/18 05:46:15;;;;;;;15.07;13.43;;;8.30;99.90;;;;;;5122957;28;20201;-34
2021/03/18 05:48:45;;;;;;;13.80;12.40;;;8.20;99.90;;;;;;5122755;28;20285;-35
2021/03/18 05:51:17;;;;;;;19.05;13.32;;;8.20;99.90;;;;;;5122986;28;20228;-35
2021/03/18 05:53:50;;;;;;;16.23;14.00;;;8.20;99.90;;;;;;5122930;28;20208;-35
2021/03/18 05:56:22;;;;;;;15.40;13.55;;;8.10;99.90;;;;;;5121731;28;20219;-35
2021/03/18 05:58:52;;;;;;;16.35;14.85;;;8.10;99.90;;;;;;5121497;28;20635;-34
2021/03/18 06:01:23;;;;;;;18.13;16.33;;;8.00;99.90;;;;;;5123218;28;20610;-36
2021/03/18 06:03:57;;;;;;;21.63;19.15;;;7.90;99.90;;;;;;5123135;28;20192;-35
2021/03/18 06:06:28;;;;;;;21.38;19.13;;;7.90;99.90;;;;;;5122889;28;20222;-35
2021/03/18 06:08:59;;;;;;;21.40;19.20;;;7.90;99.90;;;;;;5122572;28;20234;-35
2021/03/18 06:11:29;;;;;;;22.48;20.23;;;7.80;99.90;;;;;;5121668;28;20208;-35
2021/03/18 06:14:00;;;;;;;25.42;22.88;;;7.80;99.90;;;;;;5122975;28;20222;-35
2021/03/18 06:16:30;;;;;;;24.95;22.40;;;7.70;99.90;;;;;;5122353;28;20204;-35
2021/03/18 06:19:01;;;;;;;23.27;20.88;;;7.70;99.90;;;;;;5108635;28;20215;-35
2021/03/18 06:21:51;;;;;;;25.85;23.35;;;7.60;99.90;;;;;;5122756;28;20204;-35
2021/03/18 06:24:23;;;;;;;25.20;22.70;;;7.60;99.90;;;;;;5122720;28;20208;-35
2021/03/18 06:26:53;;;;;;;26.10;23.40;;;7.60;99.90;;;;;;5119614;28;20208;-35
2021/03/18 06:29:34;;;;;;;23.80;21.52;;;7.60;99.90;;;;;;5115002;28;20227;-35
2021/03/18 06:32:18;;;;;;;21.52;19.30;;;7.70;99.90;;;;;;5118241;28;20317;-34
2021/03/18 06:34:50;;;;;;;21.48;19.25;;;7.60;99.90;;;;;;5126976;28;20211;-35
2021/03/18 06:37:37;;;;;;;21.08;18.88;;;7.60;99.90;;;;;;5124519;28;20199;-35
2021/03/18 06:40:18;;;;;;;19.02;17.27;;;7.60;99.90;;;;;;5119002;28;20232;-35
2021/03/18 06:42:57;;;;;;;25.73;19.27;;;7.60;99.90;;;;;;5125580;28;20200;-35
2021/03/18 06:45:31;;;;;;;18.83;16.85;;;7.60;99.90;;;;;;5126577;28;20224;-35
2021/03/18 06:48:03;;;;;;;18.70;16.75;;;7.50;99.90;;;;;;5125797;28;20203;-34
2021/03/18 06:50:35;;;;;;;22.35;18.23;;;7.50;99.90;;;;;;5126654;28;20208;-34
2021/03/18 06:53:18;;;;;;;19.60;16.83;;;7.40;99.90;;;;;;5125844;28;20304;-35
2021/03/18 06:55:50;;;;;;;16.88;13.82;;;7.40;99.90;;;;;;5125942;28;20199;-35
2021/03/18 06:58:22;;;;;;;16.92;15.02;;;7.50;99.90;;;;;;5124847;28;20207;-36
2021/03/18 07:00:54;;;;;;;17.90;15.70;;;7.50;99.90;;;;;;5126468;28;20200;-35
2021/03/18 07:03:29;;;;;;;17.55;14.82;;;7.50;99.90;;;;;;5126586;28;20204;-35
2021/03/18 07:06:01;;;;;;;15.05;13.63;;;7.40;99.90;;;;;;5126052;28;20291;-35
2021/03/18 07:08:32;;;;;;;17.52;14.73;;;7.40;99.90;;;;;;5125482;28;20228;-34
2021/03/18 07:11:21;;;;;;;16.35;14.65;;;7.40;99.90;;;;;;5126322;28;20610;-36
2021/03/18 07:13:51;;;;;;;16.25;14.60;;;7.40;99.90;;;;;;5126853;28;20204;-35
2021/03/18 07:16:21;;;;;;;15.35;13.93;;;7.40;99.90;;;;;;5124809;28;20207;-35
2021/03/18 07:19:00;;;;;;;19.27;16.05;;;7.40;99.90;;;;;;5125951;28;20643;-35
2021/03/18 07:21:37;;;;;;;16.88;14.05;;;7.40;99.90;;;;;;5119069;28;20272;-35
2021/03/18 07:24:22;;;;;;;15.20;13.55;;;7.40;99.90;;;;;;5125938;28;20208;-35
2021/03/18 07:26:53;;;;;;;14.70;13.20;;;7.30;99.90;;;;;;5124101;28;20203;-35
2021/03/18 07:29:25;;;;;;;15.50;13.60;;;7.20;99.90;;;;;;5126018;28;20212;-36
2021/03/18 07:31:56;;;;;;;15.10;13.55;;;7.30;99.90;;;;;;5125527;28;20208;-35
2021/03/18 07:34:26;;;;;;;15.38;13.20;;;7.40;99.90;;;;;;5125489;28;20200;-36
2021/03/18 07:37:07;;;;;;;14.05;12.23;;;7.40;99.90;;;;;;5120734;28;20210;-35
2021/03/18 07:39:39;;;;;;;13.40;12.10;;;7.40;99.90;;;;;;5125545;28;20239;-36
2021/03/18 07:42:11;;;;;;;13.20;11.85;;;7.40;99.90;;;;;;5123026;28;20253;-36
2021/03/18 07:44:44;;;;;;;17.02;12.98;;;7.30;99.90;;;;;;5125392;28;20237;-36
2021/03/18 07:47:15;;;;;;;16.13;12.75;;;7.20;99.90;;;;;;5125239;28;20204;-35
2021/03/18 07:49:47;;;;;;;15.23;12.55;;;7.10;99.90;;;;;;5114332;28;20292;-36
2021/03/18 07:52:21;;;;;;;15.15;12.65;;;7.00;99.90;;;;;;5125294;28;20226;-36
2021/03/18 07:54:55;;;;;;;16.08;14.38;;;7.00;99.90;;;;;;5124349;28;20240;-35
2021/03/18 07:57:26;;;;;;;15.25;13.70;;;7.00;99.90;;;;;;5124106;28;20265;-34
2021/03/18 08:00:11;;;;;;;17.85;15.80;;;6.90;99.90;;;;;;5125766;28;20204;-35
2021/03/18 08:02:41;;;;;;;16.92;15.32;;;6.90;99.90;;;;;;5125288;28;20637;-36
2021/03/18 08:05:12;;;;;;;15.50;13.98;;;6.90;99.90;;;;;;5123942;28;20196;-35
2021/03/18 08:07:44;;;;;;;14.23;12.93;;;7.00;99.90;;;;;;5124646;28;20200;-35
2021/03/18 08:10:16;;;;;;;15.50;13.48;;;7.00;99.90;;;;;;5124703;28;20246;-34
2021/03/18 08:12:49;;;;;;;15.93;13.88;;;7.00;99.90;;;;;;5123663;28;20285;-34
2021/03/18 08:15:31;;;;;;;16.33;14.48;;;6.90;99.90;;;;;;5124881;28;21746;-34
2021/03/18 08:18:33;;;;;;;16.70;14.60;;;6.90;99.90;;;;;;5120690;28;20210;-35
2021/03/18 08:21:08;;;;;;;14.80;12.95;;;6.80;99.90;;;;;;5122184;28;20229;-35
2021/03/18 08:23:55;;;;;;;15.68;13.20;;;6.80;99.90;;;;;;5124503;28;20300;-35
2021/03/18 08:26:44;;;;;;;14.38;12.95;;;6.70;99.90;;;;;;5123115;28;20575;-35
2021/03/18 08:29:17;;;;;;;14.07;12.68;;;6.70;99.90;;;;;;5109579;28;20248;-35
2021/03/18 08:31:59;;;;;;;15.10;12.13;;;6.70;99.90;;;;;;5124714;28;20204;-35
2021/03/18 08:34:54;;;;;;;12.88;11.57;;;6.60;99.90;;;;;;5123884;28;20200;-35
2021/03/18 08:37:39;;;;;;;12.20;11.00;;;6.60;99.90;;;;;;5124047;28;20200;-36
2021/03/18 08:40:33;;;;;;;12.10;10.90;;;6.60;99.90;;;;;;5124565;28;20227;-34
2021/03/18 08:43:06;;;;;;;13.68;11.63;;;6.60;99.90;;;;;;5116867;28;20187;-34
2021/03/18 08:45:40;;;;;;;13.55;11.45;;;6.60;99.90;;;;;;5123166;28;20207;-35
2021/03/18 08:48:20;;;;;;;12.40;10.07;;;6.60;99.90;;;;;;5124209;28;20207;-35
2021/03/18 08:50:58;;;;;;;11.18;10.07;;;6.60;99.90;;;;;;5124181;28;20212;-35
2021/03/18 08:53:31;;;;;;;11.60;10.43;;;6.60;99.90;;;;;;5123348;28;20268;-34
2021/03/18 08:56:01;;;;;;;12.20;10.80;;;6.70;99.90;;;;;;5123626;28;20208;-35
2021/03/18 08:58:44;;;;;;;12.02;10.73;;;6.60;99.90;;;;;;5123620;28;20310;-35
2021/03/18 09:01:20;;;;;;;12.50;10.93;;;6.60;99.90;;;;;;5108858;28;20252;-35
2021/03/18 09:03:58;;;;;;;12.10;10.88;;;6.60;99.90;;;;;;5123879;28;20202;-35
2021/03/18 09:06:33;;;;;;;12.02;10.90;;;6.60;99.90;;;;;;5118904;28;20260;-35
2021/03/18 09:09:06;;;;;;;12.38;11.02;;;6.60;99.90;;;;;;5123876;28;20678;-35
2021/03/18 09:11:37;;;;;;;11.23;10.13;;;6.50;99.90;;;;;;5116568;28;20237;-36
2021/03/18 09:14:07;;;;;;;12.88;11.68;;;6.40;99.90;;;;;;5122821;28;20203;-35
2021/03/18 09:16:39;;;;;;;13.88;10.32;;;6.40;99.90;;;;;;5123549;28;20289;-35
2021/03/18 09:19:09;;;;;;;12.00;10.20;;;6.40;99.90;;;;;;5112624;28;20223;-35
2021/03/18 09:21:41;;;;;;;14.20;11.70;;;6.40;99.90;;;;;;5122819;28;20212;-35
2021/03/18 09:24:12;;;;;;;11.50;10.30;;;6.30;99.90;;;;;;5123396;28;20204;-35
2021/03/18 09:26:42;;;;;;;11.25;9.98;;;6.20;99.90;;;;;;5122377;28;20200;-35
2021/03/18 09:29:12;;;;;;;13.65;10.57;;;6.10;99.90;;;;;;5123587;28;20268;-35
2021/03/18 09:31:44;;;;;;;10.98;9.75;;;6.00;99.90;;;;;;5123557;28;20546;-35
2021/03/18 09:34:14;;;;;;;12.15;10.85;;;6.00;99.90;;;;;;5123434;28;20192;-35
2021/03/18 09:36:44;;;;;;;12.90;11.07;;;6.00;99.90;;;;;;5120010;28;20227;-35
2021/03/18 09:39:16;;;;;;;19.23;16.40;;;6.00;99.90;;;;;;5123031;28;20254;-35
2021/03/18 09:41:48;;;;;;;18.02;13.25;;;6.10;99.90;;;;;;5122939;28;20289;-35
2021/03/18 09:44:21;;;;;;;13.77;12.35;;;6.10;99.90;;;;;;5123282;28;20206;-35
2021/03/18 09:46:55;;;;;;;14.20;11.95;;;6.10;99.90;;;;;;5122829;28;20214;-35
2021/03/18 09:49:30;;;;;;;15.32;11.98;;;6.00;99.90;;;;;;5123336;28;20219;-35
2021/03/18 09:52:01;;;;;;;14.45;12.05;;;6.00;99.90;;;;;;5123172;28;20203;-36
2021/03/18 09:54:32;;;;;;;13.85;12.45;;;6.00;99.90;;;;;;5122938;28;20541;-39
2021/03/18 09:57:03;;;;;;;13.98;12.50;;;6.00;99.90;;;;;;5121960;28;20207;-35
2021/03/18 09:59:33;;;;;;;17.45;13.85;;;6.00;99.90;;;;;;5123649;28;20208;-35
2021/03/18 10:02:05;;;;;;;13.43;12.07;;;6.00;99.90;;;;;;5123041;28;20203;-35
2021/03/18 10:04:39;;;;;;;14.95;13.45;;;6.00;99.90;;;;;;5123505;28;20658;-35
2021/03/18 10:07:10;;;;;;;17.08;13.65;;;6.00;99.90;;;;;;5122476;28;20221;-35
2021/03/18 10:09:41;;;;;;;16.42;14.48;;;5.90;99.90;;;;;;5123121;28;20256;-35
2021/03/18 10:12:13;;;;;;;16.25;14.73;;;5.90;99.90;;;;;;5121664;28;20196;-35
2021/03/18 10:14:45;;;;;;;17.27;15.45;;;5.90;99.90;;;;;;5123137;28;20215;-35
2021/03/18 10:17:21;;;;;;;15.57;14.02;;;6.00;99.90;;;;;;5114121;28;20964;-34
2021/03/18 10:19:54;;;;;;;14.32;12.80;;;5.90;99.90;;;;;;5123783;28;20205;-35
2021/03/18 10:22:30;;;;;;;15.00;13.50;;;5.90;99.90;;;;;;5122687;28;20253;-35
2021/03/18 10:25:06;;;;;;;14.73;12.88;;;5.90;99.90;;;;;;5122832;28;20261;-35
2021/03/18 10:27:39;;;;;;;16.85;14.20;;;5.90;99.90;;;;;;5121724;28;20207;-35
2021/03/18 10:30:17;;;;;;;18.20;15.82;;;5.90;99.90;;;;;;5123133;28;20227;-35
2021/03/18 10:33:04;;;;;;;20.45;15.85;;;5.90;99.90;;;;;;5122180;28;20208;-35
2021/03/18 10:35:36;;;;;;;16.48;14.75;;;6.00;99.90;;;;;;5123479;28;20200;-33
2021/03/18 10:38:12;;;;;;;19.27;15.18;;;5.90;99.90;;;;;;5112173;28;20208;-35
2021/03/18 10:40:44;;;;;;;17.23;15.02;;;5.80;99.90;;;;;;5119683;28;20227;-36
2021/03/18 10:43:24;;;;;;;16.33;14.73;;;5.80;99.90;;;;;;5121521;28;20210;-35
2021/03/18 10:45:57;;;;;;;15.73;14.07;;;5.80;99.90;;;;;;5123140;28;20208;-35
2021/03/18 10:48:29;;;;;;;13.93;12.40;;;5.90;99.90;;;;;;5122833;28;20204;-35
2021/03/18 10:51:05;;;;;;;18.13;13.80;;;6.00;99.90;;;;;;5122644;28;20591;-35
2021/03/18 10:53:36;;;;;;;14.73;13.23;;;6.00;99.90;;;;;;5119877;28;20670;-35
2021/03/18 10:56:12;;;;;;;16.25;14.52;;;5.90;99.90;;;;;;5121853;28;20204;-35
2021/03/18 10:58:43;;;;;;;14.60;13.00;;;5.80;99.90;;;;;;5122029;28;20208;-35
2021/03/18 11:01:15;;;;;;;14.93;13.40;;;5.80;99.90;;;;;;5122466;28;20208;-35
2021/03/18 11:03:48;;;;;;;16.35;13.85;;;5.90;99.90;;;;;;5122587;28;20214;-35
2021/03/18 11:06:20;;;;;;;16.83;14.80;;;6.00;99.90;;;;;;5121813;28;20259;-34
2021/03/18 11:08:51;;;;;;;17.58;14.93;;;6.00;99.90;;;;;;5122865;28;20204;-35
2021/03/18 11:11:23;;;;;;;15.23;13.70;;;6.00;99.90;;;;;;5121387;28;20268;-35
2021/03/18 11:14:04;;;;;;;18.77;14.90;;;6.00;99.90;;;;;;5122706;28;20207;-35
2021/03/18 11:16:34;;;;;;;17.90;15.10;;;6.10;99.90;;;;;;5122911;28;20212;-35
2021/03/18 11:19:08;;;;;;;17.08;15.25;;;6.10;99.90;;;;;;5117065;28;20279;-35
2021/03/18 11:21:40;;;;;;;16.83;14.43;;;6.20;99.90;;;;;;5125197;28;20287;-35
2021/03/18 11:24:13;;;;;;;15.90;14.20;;;6.20;99.90;;;;;;5126621;28;20212;-35
2021/03/18 11:26:45;;;;;;;16.13;14.40;;;6.30;99.90;;;;;;5125283;28;20204;-35
2021/03/18 11:29:17;;;;;;;15.93;14.15;;;6.20;99.90;;;;;;5122979;28;20220;-35
2021/03/18 11:31:54;;;;;;;16.30;14.60;;;6.30;99.90;;;;;;5121569;28;20208;-35
2021/03/18 11:34:27;;;;;;;17.60;14.57;;;6.20;99.90;;;;;;5120985;28;20619;-35
2021/03/18 11:37:00;;;;;;;18.30;16.40;;;6.30;99.90;;;;;;5125485;28;20257;-35
2021/03/18 11:39:30;;;;;;;19.27;15.45;;;6.30;99.90;;;;;;5125203;28;20243;-34
2021/03/18 11:42:02;;;;;;;18.02;15.55;;;6.30;99.90;;;;;;5125515;28;20225;-35
2021/03/18 11:44:33;;;;;;;19.70;16.42;;;6.30;99.90;;;;;;5121704;28;20210;-35
2021/03/18 11:47:05;;;;;;;18.20;16.38;;;6.40;99.90;;;;;;5125701;28;20208;-36
2021/03/18 11:49:37;;;;;;;20.70;16.75;;;6.30;99.90;;;;;;5124489;28;20220;-35
2021/03/18 11:52:08;;;;;;;22.98;17.85;;;6.40;99.90;;;;;;5125409;28;20597;-35
2021/03/18 11:54:39;;;;;;;20.48;17.63;;;6.50;99.90;;;;;;5125813;28;20203;-36
2021/03/18 11:57:09;;;;;;;20.65;16.70;;;6.60;99.90;;;;;;5116058;28;20200;-36
2021/03/18 11:59:39;;;;;;;23.45;17.80;;;6.60;99.90;;;;;;5124533;28;20200;-35
2021/03/18 12:02:09;;;;;;;19.15;17.15;;;6.50;99.90;;;;;;5125071;28;20208;-35
2021/03/18 12:04:41;;;;;;;20.38;17.02;;;6.50;99.90;;;;;;5125544;28;20289;-35
2021/03/18 12:07:11;;;;;;;21.13;18.40;;;6.40;99.90;;;;;;5124481;28;20188;-35
2021/03/18 12:09:41;;;;;;;21.48;18.63;;;6.40;99.90;;;;;;5125036;28;20254;-36
2021/03/18 12:12:11;;;;;;;21.35;19.05;;;6.50;99.90;;;;;;5123720;28;20204;-36
2021/03/18 12:14:41;;;;;;;22.65;20.38;;;6.60;99.90;;;;;;5122244;28;20197;-35
2021/03/18 12:17:11;;;;;;;22.27;19.67;;;6.60;99.90;;;;;;5124014;28;20233;-35
2021/03/18 12:19:43;;;;;;;22.33;20.00;;;6.50;99.90;;;;;;5124938;28;20236;-35
2021/03/18 12:22:13;;;;;;;24.27;21.65;;;6.50;99.90;;;;;;5124974;28;20200;-34
2021/03/18 12:24:43;;;;;;;25.13;22.35;;;6.60;99.90;;;;;;5124234;28;20631;-35
2021/03/18 12:27:13;;;;;;;23.13;20.65;;;6.70;99.90;;;;;;5121417;28;20661;-36
2021/03/18 12:29:43;;;;;;;25.67;20.55;;;6.80;99.90;;;;;;5114324;28;20223;-36
2021/03/18 12:32:13;;;;;;;22.83;20.55;;;6.80;99.90;;;;;;5124912;28;20248;-36
2021/03/18 12:34:45;;;;;;;22.98;19.75;;;6.90;99.90;;;;;;5124877;28;20208;-37
2021/03/18 12:37:15;;;;;;;22.65;20.33;;;6.90;99.90;;;;;;5123768;28;20192;-37
2021/03/18 12:39:46;;;;;;;21.90;19.60;;;7.10;99.90;;;;;;5124642;28;20329;-36
2021/03/18 12:42:16;;;;;;;21.73;19.50;;;7.00;99.90;;;;;;5123929;28;20222;-36
2021/03/18 12:44:46;;;;;;;23.70;20.80;;;7.00;99.90;;;;;;5124277;28;20208;-37
2021/03/18 12:47:18;;;;;;;20.75;18.65;;;7.10;99.90;;;;;;5123428;28;20204;-37
2021/03/18 12:49:49;;;;;;;21.10;17.90;;;7.10;99.90;;;;;;5124354;28;20227;-36
2021/03/18 12:52:19;;;;;;;20.35;18.17;;;7.20;99.90;;;;;;5124486;28;20223;-37
2021/03/18 12:54:49;;;;;;;21.65;19.35;;;7.10;99.90;;;;;;5124076;28;20585;-37
2021/03/18 12:57:20;;;;;;;19.95;18.05;;;7.10;99.90;;;;;;5122903;28;20196;-37
2021/03/18 12:59:50;;;;;;;21.23;19.13;;;7.10;99.90;;;;;;5123875;28;20203;-37
2021/03/18 13:02:20;;;;;;;19.92;17.77;;;7.10;99.90;;;;;;5123783;28;20273;-36
2021/03/18 13:04:51;;;;;;;19.63;16.52;;;7.30;99.90;;;;;;5124115;28;20257;-36
2021/03/18 13:07:21;;;;;;;17.65;15.85;;;7.20;99.90;;;;;;5123350;28;20192;-37
2021/03/18 13:09:51;;;;;;;17.00;15.27;;;7.20;99.90;;;;;;5122961;28;20239;-37